Time;durP1;ratioP1;P1;durP2;ratioP2;P2;SDS_P1;SDS_P2;PMS_P1;PMS_P2;Temp;Humidity;BMP_temperature;BMP_pressure;BME280_temperature;BME280_humidity;BME280_pressure;Samples;Min_cycle;Max_cycle;Signal;HPM_P1;HPM_P2
2021/10/28 00:13:43;;;;;;;;;135.50;114.00;;;;;3.95;61.01;102194.84;4935681;29;8865;-69
2021/10/28 00:16:39;;;;;;;;;133.25;110.25;;;;;4.02;61.03;102186.47;4923615;29;8849;-69
2021/10/28 00:19:35;;;;;;;;;126.50;113.75;;;;;3.89;61.04;102190.38;4935600;29;8849;-69
2021/10/28 00:22:30;;;;;;;;;128.25;109.00;;;;;4.27;59.85;102186.84;4934292;29;8915;-68
2021/10/28 00:25:26;;;;;;;;;127.00;116.75;;;;;4.22;59.89;102188.66;4932027;29;8973;-69
2021/10/28 00:28:21;;;;;;;;;145.25;116.25;;;;;4.25;59.61;102179.97;4935653;29;8845;-68
2021/10/28 00:31:17;;;;;;;;;101.00;75.50;;;;;4.32;59.14;102188.81;4935179;29;8885;-68
2021/10/28 00:34:14;;;;;;;;;127.75;106.25;;;;;4.13;59.61;102194.56;4935209;29;9682;-69
2021/10/28 00:37:11;;;;;;;;;118.00;108.75;;;;;3.93;60.13;102191.53;4935522;29;8975;-69
2021/10/28 00:40:09;;;;;;;;;120.25;101.25;;;;;3.82;61.19;102196.00;4922782;29;8853;-68
2021/10/28 00:43:05;;;;;;;;;120.25;104.00;;;;;3.72;61.41;102186.81;4935254;29;8895;-69
2021/10/28 00:46:02;;;;;;;;;122.75;109.50;;;;;3.80;61.08;102189.97;4935016;29;8849;-68
2021/10/28 00:49:00;;;;;;;;;106.50;88.25;;;;;3.75;61.49;102186.31;4935214;29;8995;-68
2021/10/28 00:51:55;;;;;;;;;118.75;104.25;;;;;3.62;61.72;102190.22;4934887;29;8849;-68
2021/10/28 00:54:51;;;;;;;;;109.00;93.00;;;;;3.67;61.50;102190.28;4910541;29;9618;-69
2021/10/28 00:57:47;;;;;;;;;111.50;97.75;;;;;3.69;61.54;102182.69;4935190;29;9614;-69
2021/10/28 01:00:43;;;;;;;;;110.50;101.50;;;;;3.76;61.13;102186.06;4935034;29;8859;-69
2021/10/28 01:03:40;;;;;;;;;106.75;96.25;;;;;4.01;60.23;102187.56;4935107;29;8849;-68
2021/10/28 01:06:38;;;;;;;;;96.00;71.75;;;;;3.93;60.43;102183.31;4934780;29;8837;-68
2021/10/28 01:09:33;;;;;;;;;111.00;91.25;;;;;4.11;59.58;102190.44;4934442;29;8872;-68
2021/10/28 01:12:29;;;;;;;;;124.50;96.00;;;;;3.93;59.91;102190.72;4919448;29;8864;-68
2021/10/28 01:15:25;;;;;;;;;120.25;96.75;;;;;3.92;60.34;102183.59;4927090;29;8841;-69
2021/10/28 01:18:22;;;;;;;;;116.00;95.00;;;;;3.82;60.65;102184.22;4934121;29;8822;-69
2021/10/28 01:21:18;;;;;;;;;109.00;86.25;;;;;3.77;61.14;102181.44;4921934;29;8884;-68
2021/10/28 01:24:14;;;;;;;;;122.00;89.00;;;;;3.72;61.19;102182.16;4934658;29;8923;-68
2021/10/28 01:27:10;;;;;;;;;109.25;95.00;;;;;3.84;60.43;102169.22;4934666;29;8840;-68
2021/10/28 01:30:06;;;;;;;;;141.25;110.25;;;;;3.82;60.39;102176.00;4926736;29;8980;-69
2021/10/28 01:33:03;;;;;;;;;144.00;116.75;;;;;3.87;60.48;102170.63;4914671;29;8842;-68
2021/10/28 01:35:58;;;;;;;;;183.75;149.00;;;;;3.90;59.81;102176.44;4915414;29;8839;-68
2021/10/28 01:38:55;;;;;;;;;230.75;186.00;;;;;3.91;60.52;102185.50;4916674;29;8879;-69
2021/10/28 01:41:53;;;;;;;;;222.00;200.50;;;;;3.77;60.41;102186.91;4916046;29;8855;-68
2021/10/28 01:44:49;;;;;;;;;242.25;198.75;;;;;3.73;61.01;102191.19;4897414;29;8864;-69
2021/10/28 01:47:45;;;;;;;;;246.00;185.75;;;;;3.61;61.50;102189.38;4897415;29;8867;-68
2021/10/28 01:50:41;;;;;;;;;207.25;163.25;;;;;3.46;62.53;102189.13;4897569;29;8931;-69
2021/10/28 01:53:39;;;;;;;;;189.75;144.75;;;;;3.44;62.40;102185.78;4908737;29;8957;-69
2021/10/28 01:56:35;;;;;;;;;164.00;134.75;;;;;3.47;62.42;102184.47;4914536;29;8845;-69
2021/10/28 01:59:33;;;;;;;;;140.25;106.75;;;;;3.56;62.40;102188.47;4916215;29;8990;-68
2021/10/28 02:02:28;;;;;;;;;131.75;109.50;;;;;3.57;62.36;102180.00;4916035;29;8853;-69
2021/10/28 02:05:24;;;;;;;;;120.25;102.50;;;;;3.53;62.41;102180.75;4926575;29;8892;-69
2021/10/28 02:08:20;;;;;;;;;122.50;105.75;;;;;3.47;62.75;102185.31;4915975;29;8850;-69
2021/10/28 02:11:15;;;;;;;;;122.25;101.00;;;;;3.37;62.69;102189.75;4916911;29;8858;-69
2021/10/28 02:14:11;;;;;;;;;108.25;93.75;;;;;3.52;62.44;102179.91;4919368;29;8876;-69
2021/10/28 02:17:07;;;;;;;;;103.50;84.75;;;;;3.60;61.76;102193.22;4919749;29;8853;-69
2021/10/28 02:20:06;;;;;;;;;115.00;93.75;;;;;3.48;62.44;102206.09;4919511;29;8921;-69
2021/10/28 02:23:03;;;;;;;;;121.75;102.25;;;;;3.46;62.50;102201.97;4919284;29;8853;-69
2021/10/28 02:25:58;;;;;;;;;87.25;66.25;;;;;3.52;61.95;102210.00;4919370;29;8884;-69
2021/10/28 02:28:55;;;;;;;;;123.25;98.25;;;;;3.33;62.75;102205.84;4922581;29;8823;-69
2021/10/28 02:31:50;;;;;;;;;125.25;109.00;;;;;3.35;62.71;102212.72;4937680;29;8960;-68
2021/10/28 02:34:46;;;;;;;;;141.00;119.50;;;;;3.31;62.90;102208.81;4937805;29;8847;-69
2021/10/28 02:37:42;;;;;;;;;157.25;123.25;;;;;3.38;62.59;102218.78;4937467;29;8826;-69
2021/10/28 02:40:38;;;;;;;;;212.00;160.50;;;;;3.23;63.68;102222.06;4937431;29;8973;-69
2021/10/28 02:43:34;;;;;;;;;223.25;169.25;;;;;3.24;63.34;102219.06;4924431;29;8858;-69
2021/10/28 02:46:30;;;;;;;;;202.75;157.00;;;;;3.08;63.68;102219.03;4937045;29;8846;-69
2021/10/28 02:49:26;;;;;;;;;217.25;170.50;;;;;3.10;63.90;102217.72;4937219;29;8842;-69
2021/10/28 02:52:22;;;;;;;;;245.75;176.50;;;;;3.05;63.71;102218.41;4936783;29;8910;-68
2021/10/28 02:55:18;;;;;;;;;90.50;25.50;;;;;3.20;63.30;102228.00;4937211;29;8909;-68
2021/10/28 02:58:14;;;;;;;;;240.75;167.50;;;;;3.08;63.56;102222.59;4937065;29;8862;-68
2021/10/28 03:01:09;;;;;;;;;295.25;218.50;;;;;3.02;64.09;102220.81;4936936;29;8842;-68
2021/10/28 03:04:05;;;;;;;;;296.00;224.25;;;;;3.20;63.26;102228.81;4924323;29;8838;-68
2021/10/28 03:07:00;;;;;;;;;253.00;198.75;;;;;3.15;63.91;102222.44;4936126;29;8861;-68
2021/10/28 03:09:56;;;;;;;;;263.75;197.25;;;;;3.04;63.83;102227.69;4936710;29;8819;-68
2021/10/28 03:12:53;;;;;;;;;314.50;230.00;;;;;2.96;64.28;102224.53;4936716;29;8873;-68
2021/10/28 03:15:51;;;;;;;;;312.75;219.00;;;;;3.00;64.48;102226.53;4935891;29;8846;-68
2021/10/28 03:28:30;;;;;;;;;246.75;196.00;;;;;2.89;65.17;102227.38;4936240;29;8895;-69
2021/10/28 03:31:25;;;;;;;;;234.25;181.00;;;;;2.87;64.73;102218.63;4936387;29;8838;-68
2021/10/28 03:34:21;;;;;;;;;219.75;168.25;;;;;3.08;64.53;102219.03;4923585;29;8881;-68
2021/10/28 03:37:24;;;;;;;;;226.75;150.50;;;;;3.19;63.81;102223.59;4923615;29;8839;-68
2021/10/28 03:40:40;;;;;;;;;179.00;158.50;;;;;3.15;64.09;102215.09;4935543;29;8965;-68
2021/10/28 03:47:14;;;;;;;;;175.75;127.75;;;;;2.86;64.93;102219.69;4934769;29;8972;-68
2021/10/28 04:30:47;;;;;;;;;156.50;122.00;;;;;2.89;65.75;102254.72;4933867;29;8843;-68
2021/10/28 04:33:42;;;;;;;;;178.00;146.00;;;;;2.95;65.65;102261.97;4934397;29;8831;-68
2021/10/28 04:36:38;;;;;;;;;171.25;134.50;;;;;3.12;65.40;102258.47;4932480;29;8837;-67
2021/10/28 04:39:34;;;;;;;;;171.00;136.50;;;;;3.16;65.17;102259.66;4934542;29;8866;-68
2021/10/28 04:42:29;;;;;;;;;188.25;141.00;;;;;3.18;64.90;102262.97;4934591;29;8831;-68
2021/10/28 04:45:25;;;;;;;;;169.00;131.50;;;;;2.92;65.76;102261.63;4933102;29;8874;-69
2021/10/28 04:48:21;;;;;;;;;122.75;90.75;;;;;2.94;65.84;102257.56;4917398;29;9025;-67
2021/10/28 04:51:17;;;;;;;;;163.00;133.50;;;;;3.16;65.78;102256.91;4930989;29;8835;-67
2021/10/28 04:54:12;;;;;;;;;179.50;142.25;;;;;3.13;65.27;102266.41;4929371;29;8843;-67
2021/10/28 04:57:08;;;;;;;;;199.75;145.00;;;;;3.14;65.66;102267.25;4933448;29;8913;-67
2021/10/28 05:00:05;;;;;;;;;147.00;120.75;;;;;3.19;65.48;102275.56;4934082;29;8941;-67
2021/10/28 05:03:00;;;;;;;;;176.00;141.75;;;;;3.15;66.48;102282.59;4935568;29;8850;-69
2021/10/28 05:05:56;;;;;;;;;190.50;143.50;;;;;3.33;66.04;102287.88;4934935;29;8930;-68
2021/10/28 05:08:52;;;;;;;;;153.50;130.25;;;;;3.31;66.81;102288.13;4922745;29;8857;-69
2021/10/28 05:11:47;;;;;;;;;157.25;126.25;;;;;3.39;66.65;102295.13;4933538;29;8831;-69
2021/10/28 05:14:43;;;;;;;;;160.50;131.50;;;;;3.43;66.47;102292.72;4934897;29;8948;-70
2021/10/28 05:17:18;;;;;;;;;115.75;95.00;;;;;3.52;66.85;102293.97;4934848;29;8847;-68
2021/10/28 05:19:47;;;;;;;;;151.75;137.50;;;;;3.66;66.32;102303.56;4935807;29;8967;-68
2021/10/28 05:22:18;;;;;;;;;191.25;154.50;;;;;3.68;66.59;102295.94;4935615;29;8850;-68
2021/10/28 05:24:59;;;;;;;;;222.50;173.50;;;;;3.79;66.19;102300.50;4935763;29;8863;-68
2021/10/28 05:27:40;;;;;;;;;265.50;207.25;;;;;3.78;66.14;102281.59;4935432;29;8969;-68
2021/10/28 05:30:36;;;;;;;;;444.00;294.00;;;;;3.86;65.89;102281.19;4934308;29;8857;-67
2021/10/28 05:33:05;;;;;;;;;531.50;355.25;;;;;3.95;65.22;102281.63;4928612;29;8855;-68
2021/10/28 05:35:33;;;;;;;;;496.00;348.00;;;;;4.01;65.03;102288.84;4916668;29;8879;-71
2021/10/28 05:38:29;;;;;;;;;436.25;338.75;;;;;4.07;64.27;102298.81;4926288;29;8917;-68
2021/10/28 05:41:24;;;;;;;;;416.00;287.50;;;;;4.13;64.45;102287.66;4934552;29;8843;-67
2021/10/28 05:44:06;;;;;;;;;345.00;254.75;;;;;4.27;64.50;102299.13;4935303;29;8847;-68
2021/10/28 05:47:01;;;;;;;;;342.50;251.00;;;;;4.45;64.09;102295.31;4936500;29;8869;-68
2021/10/28 05:49:57;;;;;;;;;251.25;201.00;;;;;4.54;64.59;102287.50;4937418;29;8882;-68
2021/10/28 05:52:24;;;;;;;;;259.00;192.25;;;;;4.69;64.83;102290.47;4934557;29;8868;-68
2021/10/28 05:55:22;;;;;;;;;199.25;151.75;;;;;4.70;65.85;102287.47;4924748;29;8854;-68
2021/10/28 05:58:17;;;;;;;;;151.00;134.25;;;;;4.84;66.38;102292.59;4938350;29;8855;-69
2021/10/28 06:01:13;;;;;;;;;164.50;134.50;;;;;5.03;66.23;102293.94;4937523;29;8965;-68
2021/10/28 06:03:41;;;;;;;;;183.50;148.00;;;;;5.05;66.40;102294.50;4939158;29;9034;-70
2021/10/28 06:06:08;;;;;;;;;194.50;155.00;;;;;5.20;65.99;102300.16;4906749;29;8851;-69
2021/10/28 06:09:04;;;;;;;;;199.50;154.00;;;;;5.29;66.14;102301.41;4938409;29;8870;-69
2021/10/28 06:12:00;;;;;;;;;193.00;157.00;;;;;5.58;66.05;102309.38;4924672;29;8949;-68
2021/10/28 06:14:56;;;;;;;;;181.50;149.25;;;;;5.62;66.78;102307.81;4937744;29;8895;-70
2021/10/28 06:17:55;;;;;;;;;169.00;142.00;;;;;5.75;67.31;102312.88;4936949;29;8857;-69
2021/10/28 06:20:53;;;;;;;;;156.50;135.50;;;;;5.97;67.86;102317.50;4937590;29;8838;-69
2021/10/28 06:23:49;;;;;;;;;146.75;118.75;;;;;6.12;68.95;102310.22;4918650;29;8829;-69
2021/10/28 06:26:45;;;;;;;;;148.00;124.75;;;;;6.27;69.50;102319.69;4918528;29;9681;-69
2021/10/28 06:29:29;;;;;;;;;152.75;134.00;;;;;6.39;69.10;102306.59;4937679;29;8921;-68
2021/10/28 06:31:57;;;;;;;;;137.75;114.00;;;;;6.49;69.19;102309.41;4936763;29;8854;-68
2021/10/28 06:34:53;;;;;;;;;151.75;118.00;;;;;6.86;68.66;102308.56;4924514;29;8847;-69
2021/10/28 06:37:34;;;;;;;;;122.25;114.75;;;;;6.93;68.10;102306.41;4937916;29;8883;-70
2021/10/28 06:40:03;;;;;;;;;141.00;120.00;;;;;7.03;68.02;102305.63;4938415;29;8973;-69
2021/10/28 06:42:58;;;;;;;;;128.75;116.25;;;;;7.17;67.82;102299.34;4923902;29;8914;-69
2021/10/28 06:45:36;;;;;;;;;141.50;117.50;;;;;7.34;67.36;102299.16;4938250;29;8854;-68
2021/10/28 06:48:34;;;;;;;;;140.75;124.25;;;;;7.55;66.97;102297.28;4925127;29;8967;-69
2021/10/28 06:51:02;;;;;;;;;122.00;111.00;;;;;7.76;65.89;102295.41;4921534;29;8875;-68
2021/10/28 06:54:10;;;;;;;;;130.33;112.67;;;;;7.54;66.92;102292.88;4931845;29;8883;-70
2021/10/28 07:02:49;;;;;;;;;132.33;114.33;;;;;8.40;65.66;102283.88;4927051;29;8862;-69
2021/10/28 07:05:44;;;;;;;;;119.00;103.33;;;;;8.55;65.34;102278.34;4912612;29;8846;-69
2021/10/28 07:08:12;;;;;;;;;140.67;114.33;;;;;8.42;65.59;102287.19;4918869;29;8963;-69
2021/10/28 07:10:41;;;;;;;;;119.00;111.67;;;;;8.64;65.84;102284.94;4920663;29;8840;-69
2021/10/28 07:13:15;;;;;;;;;111.67;102.67;;;;;8.84;65.53;102281.31;4937677;29;8838;-69
2021/10/28 07:16:00;;;;;;;;;124.33;112.67;;;;;8.95;64.26;102290.38;4919794;29;8847;-69
2021/10/28 07:38:56;;;;;;;;;96.00;83.67;;;;;10.43;64.21;102282.00;4935873;29;8972;-70
2021/10/28 08:23:02;;;;;;;;;66.75;55.00;;;;;13.21;58.53;102287.53;4936281;29;11675;-71
2021/10/28 08:31:22;;;;;;;;;69.50;57.00;;;;;14.07;55.88;102279.16;4935442;29;11549;-69
2021/10/28 08:33:49;;;;;;;;;67.00;54.50;;;;;14.09;55.41;102266.56;4935010;29;11554;-70
2021/10/28 08:36:31;;;;;;;;;69.25;55.50;;;;;14.23;55.28;102254.53;4936478;29;11502;-70
2021/10/28 08:38:59;;;;;;;;;68.25;55.25;;;;;14.35;53.71;102246.44;4930577;29;12286;-70
2021/10/28 08:41:28;;;;;;;;;70.75;56.50;;;;;14.60;52.76;102245.78;4932888;29;11540;-71
2021/10/28 08:44:23;;;;;;;;;70.00;57.00;;;;;14.60;52.65;102234.66;4934970;29;11534;-70
2021/10/28 08:47:21;;;;;;;;;68.50;56.50;;;;;14.95;52.13;102227.25;4934740;29;11482;-70
2021/10/28 08:49:58;;;;;;;;;67.75;56.00;;;;;14.93;52.18;102232.31;4935649;29;11518;-70
2021/10/28 09:25:51;;;;;;;;;54.25;45.50;;;;;16.10;49.23;102216.63;4939010;29;10699;-69
2021/10/28 09:28:51;;;;;;;;;54.00;46.25;;;;;16.15;48.99;102210.06;4937042;29;11412;-70
2021/10/28 09:31:22;;;;;;;;;61.75;49.00;;;;;16.23;48.83;102203.66;4939409;29;10710;-70
2021/10/28 09:34:29;;;;;;;;;27.50;27.50;;;;;16.42;48.42;102206.06;4906138;29;10825;-71
2021/10/28 09:46:51;;;;;;;;;50.75;42.50;;;;;16.86;47.18;102199.13;4898090;29;10139;-70
2021/10/28 09:50:10;;;;;;;;;48.50;42.25;;;;;17.01;46.25;102194.94;4898348;29;10111;-71
2021/10/28 09:53:13;;;;;;;;;46.00;39.75;;;;;17.24;46.16;102187.88;4904835;29;10293;-70
2021/10/28 09:58:46;;;;;;;;;53.00;45.25;;;;;17.47;45.67;102191.16;4901158;29;10176;-71
2021/10/28 10:01:46;;;;;;;;;47.50;40.00;;;;;18.06;44.43;102186.19;4903400;29;10206;-71
2021/10/28 10:04:15;;;;;;;;;35.67;32.00;;;;;18.09;44.31;102179.06;4914783;29;9727;-70
2021/10/28 10:06:46;;;;;;;;;30.67;30.67;;;;;18.19;44.39;102170.22;4902925;29;9324;-71
2021/10/28 10:09:43;;;;;;;;;33.67;32.33;;;;;18.01;44.07;102175.19;4918118;29;9334;-71
2021/10/28 10:12:38;;;;;;;;;35.67;33.67;;;;;17.99;44.36;102180.31;4906150;29;9465;-69
2021/10/28 10:15:35;;;;;;;;;40.33;36.67;;;;;17.89;44.46;102174.34;4918227;29;9119;-70
2021/10/28 10:18:33;;;;;;;;;37.67;34.67;;;;;17.71;44.94;102165.28;4917347;29;9307;-70
2021/10/28 10:21:38;;;;;;;;;40.50;37.00;;;;;17.41;45.29;102159.78;4917098;29;9403;-70
2021/10/28 10:27:59;;;;;;;;;41.00;36.00;;;;;17.50;45.86;102162.50;4919408;29;9275;-70
2021/10/28 11:15:29;;;;;;;;;50.50;41.75;;;;;18.74;42.63;102128.84;4932760;29;9997;-70
2021/10/28 12:46:27;;;;;;;;;30.33;30.00;;;;;17.45;45.98;102079.63;4933981;29;9046;-70
2021/10/28 13:02:58;;;;;;;;;46.25;38.75;;;;;17.18;54.77;102080.22;4928818;29;9259;-71
2021/10/28 13:56:01;;;;;;;;;22.50;22.50;;;;;15.88;49.07;102055.06;4933940;29;9823;-72
2021/10/28 13:59:11;;;;;;;;;32.00;31.75;;;;;15.78;49.13;102059.00;4934942;29;9777;-71
2021/10/28 14:14:53;;;;;;;;;29.75;29.75;;;;;15.76;49.32;102053.75;4934029;29;9808;-72
2021/10/28 15:37:18;;;;;;;;;53.75;46.25;;;;;14.37;55.89;102071.59;4937407;29;11727;-70
2021/10/28 16:24:08;;;;;;;;;67.50;53.75;;;;;14.05;57.00;102084.75;4936578;29;11491;-71
2021/10/28 16:26:36;;;;;;;;;64.00;52.75;;;;;14.04;57.38;102080.31;4936072;28;11538;-70
2021/10/28 16:29:07;;;;;;;;;60.75;51.25;;;;;13.97;57.50;102077.19;4935605;29;11526;-70
2021/10/28 16:31:36;;;;;;;;;65.25;54.25;;;;;14.02;57.29;102085.38;4916050;29;11587;-71
2021/10/28 16:34:04;;;;;;;;;66.50;54.75;;;;;14.01;57.25;102094.84;4935468;29;11595;-71
2021/10/28 16:37:00;;;;;;;;;64.75;52.00;;;;;14.04;57.24;102093.41;4934900;29;11611;-69
2021/10/28 16:39:33;;;;;;;;;58.50;49.75;;;;;14.03;57.10;102089.81;4935634;29;11534;-68
2021/10/28 16:42:30;;;;;;;;;68.25;55.75;;;;;13.99;57.20;102086.03;4935451;29;11501;-70
2021/10/28 16:45:26;;;;;;;;;66.25;54.25;;;;;13.99;57.23;102087.97;4934762;29;11510;-69
2021/10/28 16:48:21;;;;;;;;;62.50;52.00;;;;;13.93;57.58;102087.28;4934702;29;11598;-69
2021/10/28 16:51:08;;;;;;;;;64.75;54.25;;;;;13.97;57.22;102090.28;4934589;29;11567;-69
2021/10/28 16:53:40;;;;;;;;;67.00;52.00;;;;;13.96;57.00;102088.63;4919079;29;11626;-70
2021/10/28 16:56:09;;;;;;;;;63.75;51.75;;;;;13.91;57.28;102095.97;4935598;29;11635;-69
2021/10/28 16:58:38;;;;;;;;;66.75;54.00;;;;;13.89;57.57;102084.34;4935977;29;11566;-69
2021/10/28 17:01:20;;;;;;;;;67.00;54.00;;;;;13.90;57.67;102088.75;4935429;29;12359;-69
2021/10/28 17:03:48;;;;;;;;;69.25;54.00;;;;;13.81;58.78;102093.47;4935357;29;11543;-69
2021/10/28 17:06:44;;;;;;;;;68.25;54.25;;;;;13.79;58.68;102081.00;4934751;29;11555;-69
2021/10/28 17:09:40;;;;;;;;;67.00;53.50;;;;;13.77;59.23;102086.88;4933648;29;11495;-69
2021/10/28 17:12:09;;;;;;;;;67.75;55.00;;;;;13.74;59.01;102089.50;4918585;29;12292;-69
2021/10/28 17:15:07;;;;;;;;;64.50;53.25;;;;;13.62;59.95;102081.72;4934587;29;11530;-69
2021/10/28 17:18:03;;;;;;;;;68.75;56.75;;;;;13.60;59.79;102082.06;4934201;29;11599;-70
2021/10/28 17:20:35;;;;;;;;;66.00;54.00;;;;;13.60;59.81;102081.22;4919040;29;11564;-70
2021/10/28 17:23:05;;;;;;;;;63.50;52.50;;;;;13.55;59.85;102084.94;4935578;29;11586;-70
2021/10/28 17:25:55;;;;;;;;;69.00;54.00;;;;;13.56;60.20;102083.00;4918588;29;11510;-70
2021/10/28 17:28:23;;;;;;;;;68.25;55.75;;;;;13.57;59.87;102079.91;4935892;29;11585;-70
2021/10/28 17:31:19;;;;;;;;;68.00;53.50;;;;;13.53;59.81;102078.06;4934111;29;11765;-70
2021/10/28 17:34:15;;;;;;;;;68.50;55.75;;;;;13.56;59.96;102083.81;4934400;29;11610;-70
2021/10/28 17:37:11;;;;;;;;;82.50;65.50;;;;;13.58;59.84;102075.19;4920945;29;11582;-70
2021/10/28 17:40:08;;;;;;;;;75.00;58.50;;;;;13.57;59.44;102085.47;4929994;29;11663;-70
2021/10/28 17:42:36;;;;;;;;;76.50;59.50;;;;;13.50;59.79;102087.06;4936775;29;11555;-70
2021/10/28 17:45:36;;;;;;;;;84.50;73.75;;;;;13.53;59.79;102080.84;4938351;29;11548;-71
2021/10/28 17:48:31;;;;;;;;;74.75;60.75;;;;;13.54;59.82;102079.72;4938396;29;11606;-72
2021/10/28 17:51:27;;;;;;;;;82.50;68.50;;;;;13.56;59.83;102078.25;4938022;29;11767;-72
2021/10/28 17:54:23;;;;;;;;;83.00;69.50;;;;;13.52;60.21;102087.56;4925444;29;11144;-72
2021/10/28 17:57:18;;;;;;;;;77.50;63.25;;;;;13.50;60.91;102084.28;4937733;29;11706;-72
2021/10/28 18:00:15;;;;;;;;;79.50;65.00;;;;;13.47;61.36;102079.34;4924987;29;11761;-71
2021/10/28 18:02:44;;;;;;;;;94.50;77.75;;;;;13.42;61.53;102076.69;4939128;29;11708;-71
2021/10/28 18:05:40;;;;;;;;;82.50;70.50;;;;;13.43;61.27;102072.78;4925335;29;11718;-70
2021/10/28 18:08:35;;;;;;;;;83.00;70.00;;;;;13.36;62.03;102076.00;4938023;29;11742;-70
2021/10/28 18:11:31;;;;;;;;;82.00;68.75;;;;;13.37;61.96;102076.81;4937589;29;11673;-70
2021/10/28 18:14:27;;;;;;;;;81.75;70.25;;;;;13.30;61.75;102074.50;4938040;29;11698;-69
2021/10/28 18:17:23;;;;;;;;;83.75;69.25;;;;;13.32;61.47;102075.00;4923188;29;11681;-69
2021/10/28 18:20:19;;;;;;;;;85.75;75.50;;;;;13.29;62.32;102070.88;4930955;29;11697;-69
2021/10/28 18:23:14;;;;;;;;;83.25;73.00;;;;;13.19;63.00;102075.81;4937697;29;11572;-70
2021/10/28 18:25:42;;;;;;;;;81.75;64.50;;;;;13.19;62.97;102070.28;4921699;29;11667;-70
2021/10/28 18:28:38;;;;;;;;;73.00;56.75;;;;;13.18;62.90;102072.22;4937394;29;12352;-71
2021/10/28 18:31:34;;;;;;;;;121.50;99.25;;;;;13.14;63.20;102073.19;4936485;29;11555;-70
2021/10/28 18:34:30;;;;;;;;;104.00;88.00;;;;;13.21;62.93;102068.06;4937439;29;12333;-70
2021/10/28 18:37:25;;;;;;;;;109.33;91.67;;;;;13.25;62.60;102071.81;4918177;29;11581;-70
2021/10/28 18:40:22;;;;;;;;;100.00;87.25;;;;;13.17;63.16;102069.78;4917974;29;11602;-69
2021/10/28 18:43:17;;;;;;;;;103.50;87.00;;;;;13.17;62.87;102067.81;4918275;29;11622;-70
2021/10/28 18:46:17;;;;;;;;;86.00;79.00;;;;;13.22;62.56;102078.03;4918232;29;12444;-70
2021/10/28 18:49:19;;;;;;;;;97.75;86.75;;;;;13.08;63.08;102072.50;4918085;29;11599;-71
2021/10/28 18:52:16;;;;;;;;;95.00;85.75;;;;;13.05;62.88;102076.72;4917907;29;11566;-70
2021/10/28 18:55:12;;;;;;;;;93.75;83.00;;;;;12.80;63.61;102078.16;4930407;29;11578;-71
2021/10/28 18:57:41;;;;;;;;;89.75;78.25;;;;;12.79;63.57;102082.03;4933588;29;11765;-70
2021/10/28 19:00:37;;;;;;;;;89.75;81.00;;;;;12.80;63.51;102093.94;4926105;29;11597;-70
2021/10/28 19:03:33;;;;;;;;;89.00;80.50;;;;;12.60;63.51;102084.13;4924745;29;11675;-70
2021/10/28 19:06:29;;;;;;;;;93.75;85.25;;;;;12.61;63.79;102082.19;4936510;29;11610;-70
2021/10/28 19:09:24;;;;;;;;;89.00;80.25;;;;;12.49;63.88;102097.38;4936763;29;11669;-70
2021/10/28 19:12:14;;;;;;;;;93.50;87.75;;;;;12.44;63.75;102105.84;4937822;29;11702;-70
2021/10/28 19:15:10;;;;;;;;;88.25;80.25;;;;;12.29;64.22;102106.16;4936603;29;11702;-70
2021/10/28 19:18:06;;;;;;;;;91.75;81.50;;;;;12.18;64.56;102104.69;4936819;29;11717;-71
2021/10/28 19:21:03;;;;;;;;;94.67;89.67;;;;;12.13;64.53;102110.38;4937049;29;11574;-71
2021/10/28 19:23:58;;;;;;;;;91.67;85.00;;;;;11.87;65.43;102093.38;4923908;29;11571;-70
2021/10/28 19:26:54;;;;;;;;;98.33;93.33;;;;;11.82;65.91;102108.16;4936486;29;11565;-69
2021/10/28 19:29:55;;;;;;;;;94.50;78.25;;;;;11.81;65.66;102116.75;4936275;29;11604;-70
2021/10/28 19:32:55;;;;;;;;;86.75;67.00;;;;;11.68;66.52;102116.41;4936453;29;11579;-70
2021/10/28 19:35:58;;;;;;;;;95.25;85.25;;;;;11.70;66.55;102114.16;4936551;29;11589;-74
2021/10/28 19:39:14;;;;;;;;;85.00;71.25;;;;;11.81;66.49;102125.06;4922600;29;12344;-70
2021/10/28 19:45:32;;;;;;;;;95.00;84.50;;;;;11.82;67.35;102132.28;4936863;29;11559;-69
2021/10/28 19:48:27;;;;;;;;;82.75;67.00;;;;;11.89;67.11;102128.00;4936100;29;11691;-69
2021/10/28 19:51:23;;;;;;;;;82.00;67.75;;;;;11.92;67.21;102135.69;4935987;29;11654;-69
2021/10/28 19:54:19;;;;;;;;;84.50;69.75;;;;;11.89;67.67;102138.25;4935969;29;11544;-70
2021/10/28 19:57:19;;;;;;;;;81.00;67.75;;;;;11.88;67.53;102142.97;4935923;29;11572;-69
2021/10/28 20:04:25;;;;;;;;;149.33;130.00;;;;;12.02;67.16;102150.50;4916980;29;11603;-69
2021/10/28 20:20:02;;;;;;;;;161.67;140.33;;;;;12.08;67.26;102144.53;4922910;29;8819;-70
2021/10/28 20:21:52;;;;;;;;;118.33;88.67;;;;;12.12;67.58;102156.69;4935311;29;9592;-70
2021/10/28 20:24:48;;;;;;;;;113.33;98.67;;;;;12.11;67.44;102148.66;4923021;29;8890;-70
2021/10/28 20:27:48;;;;;;;;;113.33;108.00;;;;;12.09;67.60;102151.72;4935304;29;8826;-70
2021/10/28 20:30:19;;;;;;;;;120.67;103.67;;;;;12.13;67.63;102149.19;4936366;29;8834;-70
2021/10/28 20:33:15;;;;;;;;;115.00;104.33;;;;;12.09;67.61;102142.59;4935661;29;8937;-70
2021/10/28 20:39:21;;;;;;;;;85.25;74.25;;;;;12.14;66.99;102154.44;4935070;29;11593;-71
2021/10/28 20:42:18;;;;;;;;;88.00;73.25;;;;;12.09;66.94;102151.72;4935676;29;11548;-70
2021/10/28 20:45:24;;;;;;;;;84.00;73.25;;;;;12.06;67.33;102144.03;4934285;29;11568;-70
2021/10/28 20:48:20;;;;;;;;;83.25;71.00;;;;;12.02;67.56;102144.94;4935437;29;11574;-71
2021/10/28 20:51:16;;;;;;;;;85.00;68.75;;;;;11.89;68.01;102147.41;4935228;29;12374;-70
2021/10/28 20:54:12;;;;;;;;;86.25;75.50;;;;;11.86;67.92;102153.53;4922311;29;11686;-70
2021/10/28 20:57:07;;;;;;;;;87.50;75.00;;;;;11.80;68.05;102149.19;4922263;29;11644;-70
2021/10/28 21:00:09;;;;;;;;;79.25;63.50;;;;;11.72;68.46;102154.59;4934517;29;11755;-70
2021/10/28 21:02:39;;;;;;;;;84.50;67.75;;;;;11.59;68.94;102157.03;4935895;29;11671;-70
2021/10/28 21:05:11;;;;;;;;;86.75;69.75;;;;;11.58;69.00;102157.34;4935619;29;11573;-70
2021/10/28 21:08:07;;;;;;;;;91.00;74.75;;;;;11.54;69.14;102161.81;4934051;29;11625;-70
2021/10/28 21:11:02;;;;;;;;;84.25;71.00;;;;;11.46;69.41;102166.09;4933976;29;11675;-70
2021/10/28 21:13:58;;;;;;;;;81.00;67.50;;;;;11.36;69.81;102169.03;4934826;29;11587;-70
2021/10/28 21:16:54;;;;;;;;;89.50;75.00;;;;;11.27;70.56;102166.13;4915676;29;11573;-70
2021/10/28 21:19:49;;;;;;;;;81.25;59.00;;;;;11.30;70.54;102165.50;4915585;29;11713;-70
2021/10/28 21:22:45;;;;;;;;;91.75;77.75;;;;;11.25;70.90;102173.88;4915654;29;12387;-70
2021/10/28 21:25:41;;;;;;;;;92.75;74.25;;;;;11.37;70.64;102173.44;4915627;29;11630;-70
2021/10/28 21:28:37;;;;;;;;;96.75;83.75;;;;;11.46;70.84;102171.63;4902981;29;11811;-71
2021/10/28 21:31:33;;;;;;;;;98.00;82.75;;;;;11.47;71.27;102172.47;4916061;29;11629;-70
2021/10/28 21:34:29;;;;;;;;;101.00;86.33;;;;;11.64;71.00;102175.50;4928002;29;11594;-70
2021/10/28 21:37:25;;;;;;;;;119.00;97.67;;;;;11.73;71.32;102182.03;4934620;29;11588;-70
2021/10/28 21:40:21;;;;;;;;;134.67;103.33;;;;;11.84;71.32;102183.53;4921594;29;8850;-70
2021/10/28 21:43:32;;;;;;;;;128.00;111.67;;;;;11.98;72.13;102177.19;4934755;29;8933;-71
2021/10/28 21:46:31;;;;;;;;;175.33;128.33;;;;;12.17;72.43;102183.50;4934659;29;8851;-71
2021/10/28 21:49:27;;;;;;;;;99.67;71.33;;;;;12.30;71.56;102174.38;4934820;29;8867;-70
2021/10/28 22:01:59;;;;;;;;;91.50;81.00;;;;;12.61;70.99;102187.66;4934494;29;8865;-71
2021/10/28 22:05:41;;;;;;;;;98.50;83.75;;;;;12.71;70.56;102195.75;4934452;29;11661;-71
2021/10/28 22:26:22;;;;;;;;;67.25;55.25;;;;;12.94;69.92;102189.16;4915841;29;12426;-70
2021/10/28 22:29:18;;;;;;;;;72.50;59.25;;;;;12.87;70.42;102180.41;4916882;29;11606;-70
2021/10/28 22:32:15;;;;;;;;;51.50;43.75;;;;;12.91;70.67;102187.03;4918658;29;11549;-70